createdAt,value
2019-02-07T00:02:10.849Z,97290.86
2019-02-07T00:05:06.072Z,97288.09
2019-02-07T00:08:02.119Z,97286.54
2019-02-07T00:10:58.878Z,97284.88
2019-02-07T00:13:55.585Z,97288.75
2019-02-07T00:16:51.867Z,97285.93
2019-02-07T00:19:48.594Z,97287.15
2019-02-07T00:22:45.042Z,97287.56
2019-02-07T00:25:40.557Z,97278.95
2019-02-07T00:28:37.250Z,97281.22
2019-02-07T00:31:33.209Z,97281.43
2019-02-07T00:34:29.699Z,97286.17
2019-02-07T00:37:27.632Z,97286.59
2019-02-07T00:40:25.035Z,97281.88
2019-02-07T00:43:22.597Z,97278.74
2019-02-07T00:46:18.130Z,97272.92
2019-02-07T00:49:14.609Z,97270.77
2019-02-07T00:52:11.048Z,97278.61
2019-02-07T00:55:08.565Z,97266.69
2019-02-07T00:58:04.479Z,97259.27
2019-02-07T01:01:01.787Z,97271.84
2019-02-07T01:03:58.487Z,97260.66
2019-02-07T01:06:54.259Z,97263.47
2019-02-07T01:09:50.737Z,97263.78
2019-02-07T01:12:47.385Z,97259.30
2019-02-07T01:15:44.403Z,97255.83
2019-02-07T01:18:40.174Z,97256.41
2019-02-07T01:21:36.639Z,97251.30
2019-02-07T01:24:33.627Z,97250.88
2019-02-07T01:27:29.116Z,97245.92
2019-02-07T01:30:33.490Z,97242.69
2019-02-07T01:33:29.032Z,97234.73
2019-02-07T01:36:25.872Z,97229.01
2019-02-07T01:39:22.889Z,97232.68
2019-02-07T01:42:18.635Z,97226.33
2019-02-07T01:45:13.633Z,97221.58
2019-02-07T01:48:10.328Z,97210.83
2019-02-07T01:51:06.748Z,97210.36
2019-02-07T01:54:01.699Z,97212.56
2019-02-07T01:56:59.459Z,97210.56
2019-02-07T01:59:55.173Z,97204.64
2019-02-07T02:02:52.688Z,97205.14
2019-02-07T02:05:49.433Z,97202.87
2019-02-07T02:08:46.021Z,97194.91
2019-02-07T02:11:40.632Z,97192.44
2019-02-07T02:14:37.383Z,97185.98
2019-02-07T02:17:31.875Z,97186.72
2019-02-07T02:20:28.423Z,97187.05
2019-02-07T02:23:25.134Z,97176.17
2019-02-07T02:26:21.856Z,97176.30
2019-02-07T02:29:18.190Z,97168.53
2019-02-07T02:32:14.886Z,97147.98
2019-02-07T02:35:11.391Z,97155.24
2019-02-07T02:38:06.111Z,97150.40
2019-02-07T02:41:02.889Z,97145.24
2019-02-07T02:43:59.390Z,97150.45
2019-02-07T02:46:56.121Z,97148.91
2019-02-07T02:49:52.599Z,97135.14
2019-02-07T02:52:49.083Z,97129.66
2019-02-07T02:55:48.876Z,97132.88
2019-02-07T02:58:44.486Z,97123.52
2019-02-07T03:02:02.114Z,97133.66
2019-02-07T03:05:14.253Z,97120.19
2019-02-07T03:08:22.094Z,97122.70
2019-02-07T03:11:39.388Z,97120.30
2019-02-07T03:14:53.119Z,97121.52
2019-02-07T03:18:14.352Z,97115.28
2019-02-07T03:21:31.763Z,97119.70
2019-02-07T03:24:54.677Z,97117.23
2019-02-07T03:28:05.986Z,97123.88
2019-02-07T03:31:19.337Z,97121.20
2019-02-07T03:34:31.053Z,97116.25
2019-02-07T03:37:38.006Z,97106.09
2019-02-07T03:40:44.890Z,97101.08
2019-02-07T03:44:02.485Z,97097.31
2019-02-07T03:47:15.918Z,97097.78
2019-02-07T03:50:30.015Z,97089.69
2019-02-07T03:53:41.663Z,97090.42
2019-02-07T03:56:55.811Z,97086.66
2019-02-07T04:00:04.602Z,97081.51
2019-02-07T04:03:21.598Z,97088.92
2019-02-07T04:06:34.744Z,97082.69
2019-02-07T04:09:59.607Z,97075.94
2019-02-07T04:13:09.980Z,97069.36
2019-02-07T04:16:19.786Z,97063.34
2019-02-07T04:19:28.947Z,97061.87
2019-02-07T04:22:54.148Z,97052.34
2019-02-07T04:26:13.920Z,97050.38
2019-02-07T04:29:25.805Z,97048.53
2019-02-07T04:32:36.520Z,97049.45
2019-02-07T04:35:48.340Z,97058.05
2019-02-07T04:38:57.082Z,97061.09
2019-02-07T04:42:10.156Z,97061.00
2019-02-07T04:45:26.127Z,97054.08
2019-02-07T04:48:47.814Z,97051.53
2019-02-07T04:51:57.136Z,97053.55
2019-02-07T04:55:21.614Z,97050.14
2019-02-07T04:58:37.680Z,97043.13
2019-02-07T05:01:58.874Z,97038.89
2019-02-07T05:05:09.347Z,97027.66
2019-02-07T05:08:16.325Z,97040.12
2019-02-07T05:11:26.784Z,97025.77
2019-02-07T05:14:34.399Z,97023.29
2019-02-07T05:17:43.290Z,97019.91
2019-02-07T05:21:01.481Z,97025.62
2019-02-07T05:24:20.865Z,97017.57
2019-02-07T05:27:25.629Z,97020.41
2019-02-07T05:30:40.251Z,97017.94
2019-02-07T05:34:04.163Z,97015.41
2019-02-07T05:37:21.577Z,97017.41
2019-02-07T05:40:40.287Z,97018.91
2019-02-07T05:43:49.137Z,97018.84
2019-02-07T05:46:56.671Z,97015.84
2019-02-07T05:50:05.343Z,97014.77
2019-02-07T05:53:14.265Z,97015.61
2019-02-07T05:56:34.760Z,97019.88
2019-02-07T05:59:58.137Z,97017.88
2019-02-07T06:03:24.617Z,97005.72
2019-02-07T06:06:37.752Z,97009.92
2019-02-07T06:09:48.990Z,97003.04
2019-02-07T06:13:03.042Z,97004.75
2019-02-07T06:16:12.983Z,97002.27
2019-02-07T06:19:26.631Z,97009.83
2019-02-07T06:22:36.972Z,97004.98
2019-02-07T06:25:56.008Z,96998.03
2019-02-07T06:29:09.520Z,97001.87
2019-02-07T06:32:16.072Z,96998.86
2019-02-07T06:35:38.342Z,97000.03
2019-02-07T06:38:45.610Z,97000.94
2019-02-07T06:42:04.516Z,96998.20
2019-02-07T06:45:19.737Z,96992.02
2019-02-07T06:48:35.181Z,96996.46
2019-02-07T06:51:49.487Z,96997.86
2019-02-07T06:55:14.259Z,96995.76
2019-02-07T06:58:34.271Z,97003.41
2019-02-07T07:01:54.803Z,96996.70
2019-02-07T07:05:04.967Z,97003.78
2019-02-07T07:08:18.837Z,97001.00
2019-02-07T07:11:39.079Z,96998.50
2019-02-07T07:14:44.893Z,97001.88
2019-02-07T07:17:56.525Z,97009.89
2019-02-07T07:21:19.128Z,97016.81
2019-02-07T07:24:27.809Z,97015.64
2019-02-07T07:27:42.057Z,97021.30
2019-02-07T07:31:04.157Z,97011.83
2019-02-07T07:34:20.655Z,97012.73
2019-02-07T07:37:33.073Z,97011.80
2019-02-07T07:40:42.158Z,97012.16
2019-02-07T07:43:52.741Z,97011.89
2019-02-07T07:47:05.796Z,97017.81
2019-02-07T07:50:21.793Z,97018.97
2019-02-07T07:53:30.919Z,97018.91
2019-02-07T07:56:39.786Z,97026.28
2019-02-07T07:59:53.815Z,97018.78
2019-02-07T08:03:02.244Z,97022.05
2019-02-07T08:06:27.501Z,97028.19
2019-02-07T08:09:44.952Z,97020.71
2019-02-07T08:12:54.351Z,97029.10
2019-02-07T08:16:02.084Z,97034.79
2019-02-07T08:19:12.435Z,97033.11
2019-02-07T08:22:16.331Z,97032.24
2019-02-07T08:25:30.198Z,97037.60
2019-02-07T08:28:38.089Z,97037.03
2019-02-07T08:31:55.001Z,97033.48
2019-02-07T08:35:03.659Z,97033.37
2019-02-07T08:38:13.432Z,97026.66
2019-02-07T08:41:44.391Z,97031.27
2019-02-07T08:44:55.153Z,97025.44
2019-02-07T08:48:04.002Z,97024.47
2019-02-07T08:51:12.513Z,97024.12
2019-02-07T08:54:20.259Z,97025.36
2019-02-07T08:57:32.556Z,97022.42
2019-02-07T09:00:43.110Z,97011.89
2019-02-07T09:03:59.075Z,97013.31
2019-02-07T09:07:14.690Z,97009.52
2019-02-07T09:10:23.696Z,97003.38
2019-02-07T09:13:40.013Z,96996.41
2019-02-07T09:16:54.822Z,96987.09
2019-02-07T09:20:01.688Z,96987.09
2019-02-07T09:23:15.494Z,96995.40
2019-02-07T09:26:38.621Z,96994.47
2019-02-07T09:29:46.615Z,96996.30
2019-02-07T09:33:00.336Z,96995.16
2019-02-07T09:36:05.822Z,96988.13
2019-02-07T09:39:26.721Z,96986.02
2019-02-07T09:42:49.630Z,96985.62
2019-02-07T09:46:05.168Z,96985.62
2019-02-07T09:49:13.887Z,96991.91
2019-02-07T09:52:22.250Z,96991.91
2019-02-07T09:55:30.115Z,96986.79
2019-02-07T09:58:54.848Z,96982.02
2019-02-07T10:02:11.045Z,96986.41
2019-02-07T10:05:36.640Z,96987.95
2019-02-07T10:08:46.921Z,96980.30
2019-02-07T10:11:55.487Z,96991.27
2019-02-07T10:15:17.997Z,96977.55
2019-02-07T10:18:33.023Z,96974.47
2019-02-07T10:21:35.974Z,96972.64
2019-02-07T10:24:57.572Z,96972.52
2019-02-07T10:28:04.999Z,96972.95
2019-02-07T10:31:15.423Z,96971.48
2019-02-07T10:34:29.446Z,96969.08
2019-02-07T10:37:37.463Z,96965.69
2019-02-07T10:40:48.956Z,96962.70
2019-02-07T10:44:15.634Z,96956.61
2019-02-07T10:47:22.380Z,96946.70
2019-02-07T10:50:37.276Z,96936.17
2019-02-07T10:53:42.819Z,96936.17
2019-02-07T10:56:51.001Z,96926.98
2019-02-07T11:00:13.589Z,96922.88
2019-02-07T11:03:23.954Z,96922.20
2019-02-07T11:06:34.407Z,96917.39
2019-02-07T11:09:47.533Z,96914.12
2019-02-07T11:13:00.646Z,96909.20
2019-02-07T11:16:11.368Z,96905.18
2019-02-07T11:19:21.370Z,96893.39
2019-02-07T11:22:42.658Z,96890.39
2019-02-07T11:25:51.095Z,96890.55
2019-02-07T11:29:00.852Z,96887.27
2019-02-07T11:32:11.335Z,96881.28
2019-02-07T11:35:34.474Z,96882.06
2019-02-07T11:38:45.993Z,96878.94
2019-02-07T11:41:53.799Z,96878.64
2019-02-07T11:44:56.573Z,96867.60
2019-02-07T11:48:05.028Z,96870.58
2019-02-07T11:51:14.909Z,96871.17
2019-02-07T11:54:30.641Z,96865.91
2019-02-07T11:57:39.159Z,96864.11
2019-02-07T12:01:03.823Z,96860.80
2019-02-07T12:04:11.082Z,96854.66
2019-02-07T12:07:25.316Z,96852.66
2019-02-07T12:10:35.263Z,96858.12
2019-02-07T12:13:46.993Z,96858.57
2019-02-07T12:17:05.996Z,96850.05
2019-02-07T12:20:26.562Z,96852.45
2019-02-07T12:23:35.110Z,96840.69
2019-02-07T12:26:42.980Z,96843.03
2019-02-07T12:29:56.754Z,96841.48
2019-02-07T12:33:10.530Z,96836.20
2019-02-07T12:36:15.565Z,96834.72
2019-02-07T12:39:30.421Z,96834.34
2019-02-07T12:42:47.263Z,96828.64
2019-02-07T12:45:57.277Z,96822.81
2019-02-07T12:49:07.136Z,96818.29
2019-02-07T12:52:21.269Z,96816.58
2019-02-07T12:55:35.781Z,96809.73
2019-02-07T12:58:43.274Z,96806.30
2019-02-07T13:01:58.455Z,96818.77
2019-02-07T13:05:14.514Z,96816.28
2019-02-07T13:08:38.382Z,96823.66
2019-02-07T13:11:48.497Z,96821.41
2019-02-07T13:14:58.169Z,96820.28
2019-02-07T13:18:21.997Z,96817.34
2019-02-07T13:21:42.668Z,96823.88
2019-02-07T13:24:49.831Z,96822.47
2019-02-07T13:28:06.651Z,96811.56
2019-02-07T13:31:22.498Z,96815.92
2019-02-07T13:34:41.079Z,96815.47
2019-02-07T13:37:58.386Z,96812.19
2019-02-07T13:41:07.301Z,96813.43
2019-02-07T13:44:15.231Z,96809.48
2019-02-07T13:47:25.828Z,96810.80
2019-02-07T13:50:38.595Z,96805.33
2019-02-07T13:53:48.159Z,96802.39
2019-02-07T13:57:01.278Z,96802.39
2019-02-07T14:00:14.966Z,96811.52
2019-02-07T14:03:35.718Z,96807.92
2019-02-07T14:06:45.312Z,96811.52
2019-02-07T14:09:54.408Z,96812.52
2019-02-07T14:13:19.080Z,96810.68
2019-02-07T14:16:26.828Z,96811.47
2019-02-07T14:19:48.374Z,96808.97
2019-02-07T14:22:57.028Z,96811.47
2019-02-07T14:26:06.019Z,96815.65
2019-02-07T14:29:18.886Z,96819.01
2019-02-07T14:32:35.682Z,96815.03
2019-02-07T14:35:45.947Z,96820.16
2019-02-07T14:39:08.494Z,96816.11
2019-02-07T14:42:24.270Z,96819.08
2019-02-07T14:45:51.359Z,96822.65
2019-02-07T14:48:46.881Z,96815.42
2019-02-07T14:51:42.472Z,96823.28
2019-02-07T14:54:37.958Z,96815.25
2019-02-07T14:57:34.589Z,96811.92
2019-02-07T15:00:34.199Z,96828.42
2019-02-07T15:03:30.925Z,96818.77
2019-02-07T15:06:27.467Z,96816.42
2019-02-07T15:09:30.952Z,96810.20
2019-02-07T15:12:29.687Z,96802.72
2019-02-07T15:15:24.986Z,96826.53
2019-02-07T15:18:21.936Z,96816.91
2019-02-07T15:21:16.907Z,96816.11
2019-02-07T15:24:13.806Z,96819.05
2019-02-07T15:27:09.829Z,96811.82
2019-02-07T15:30:05.541Z,96822.34
2019-02-07T15:33:02.154Z,96819.85
2019-02-07T15:36:00.055Z,96813.63
2019-02-07T15:38:56.792Z,96820.30
2019-02-07T15:41:52.513Z,96817.81
2019-02-07T15:44:49.084Z,96816.11
2019-02-07T15:47:45.550Z,96827.63
2019-02-07T15:50:45.921Z,96836.66
2019-02-07T15:53:43.946Z,96826.62
2019-02-07T15:56:38.959Z,96825.94
2019-02-07T15:59:46.276Z,96826.87
2019-02-07T16:02:54.290Z,96826.23
2019-02-07T16:05:49.850Z,96818.14
2019-02-07T16:08:46.681Z,96816.75
2019-02-07T16:11:47.185Z,96807.80
2019-02-07T16:14:44.505Z,96818.28
2019-02-07T16:17:39.216Z,96811.75
2019-02-07T16:20:48.457Z,96807.08
2019-02-07T16:23:35.405Z,96820.77
2019-02-07T16:26:31.140Z,96817.98
2019-02-07T16:29:27.474Z,96825.14
2019-02-07T16:32:22.912Z,96820.95
2019-02-07T16:35:20.190Z,96818.16
2019-02-07T16:38:15.912Z,96808.64
2019-02-07T16:41:13.718Z,96821.89
2019-02-07T16:44:09.930Z,96829.02
2019-02-07T16:47:06.626Z,96831.20
2019-02-07T16:50:03.833Z,96832.45
2019-02-07T16:53:01.514Z,96840.41
2019-02-07T16:56:02.230Z,96837.12
2019-02-07T16:59:08.050Z,96837.19
2019-02-07T17:02:04.817Z,96842.24
2019-02-07T17:05:01.663Z,96850.83
2019-02-07T17:07:58.220Z,96854.16
2019-02-07T17:10:54.980Z,96860.94
2019-02-07T17:13:50.740Z,96854.41
2019-02-07T17:16:47.860Z,96853.46
2019-02-07T17:19:43.758Z,96854.26
2019-02-07T17:22:40.533Z,96861.39
2019-02-07T17:25:37.023Z,96862.63
2019-02-07T17:28:33.707Z,96862.63
2019-02-07T17:31:29.266Z,96860.25
2019-02-07T17:34:26.027Z,96855.34
2019-02-07T17:37:22.750Z,96857.52
2019-02-07T17:40:18.671Z,96856.27
2019-02-07T17:43:19.747Z,96858.11
2019-02-07T17:46:15.003Z,96869.81
2019-02-07T17:49:10.954Z,96872.93
2019-02-07T17:52:07.534Z,96870.89
2019-02-07T17:55:05.329Z,96870.89
2019-02-07T17:58:02.221Z,96869.33
2019-02-07T18:01:10.125Z,96872.77
2019-02-07T18:04:06.878Z,96876.19
2019-02-07T18:07:02.685Z,96872.03
2019-02-07T18:10:00.462Z,96880.94
2019-02-07T18:12:57.026Z,96878.96
2019-02-07T18:15:57.283Z,96879.90
2019-02-07T18:18:52.234Z,96875.70
2019-02-07T18:21:47.840Z,96879.03
2019-02-07T18:24:44.461Z,96875.70
2019-02-07T18:27:41.972Z,96884.13
2019-02-07T18:30:37.841Z,96881.14
2019-02-07T18:33:35.372Z,96891.98
2019-02-07T18:36:31.939Z,96897.48
2019-02-07T18:39:30.805Z,96890.80
2019-02-07T18:42:25.931Z,96891.73
2019-02-07T18:45:22.658Z,96902.58
2019-02-07T18:48:18.452Z,96897.66
2019-02-07T18:51:14.450Z,96899.36
2019-02-07T18:54:10.347Z,96902.34
2019-02-07T18:57:06.770Z,96901.23
2019-02-07T19:00:04.492Z,96898.81
2019-02-07T19:03:00.230Z,96901.38
2019-02-07T19:05:58.985Z,96898.12
2019-02-07T19:08:54.488Z,96909.02
2019-02-07T19:11:52.021Z,96910.72
2019-02-07T19:14:47.946Z,96902.93
2019-02-07T19:17:44.818Z,96909.61
2019-02-07T19:20:41.318Z,96902.62
2019-02-07T19:23:43.132Z,96906.73
2019-02-07T19:26:40.693Z,96898.87
2019-02-07T19:29:36.188Z,96908.44
2019-02-07T19:32:33.143Z,96908.44
2019-02-07T19:35:29.312Z,96910.23
2019-02-07T19:38:26.112Z,96913.19
2019-02-07T19:41:22.959Z,96910.23
2019-02-07T19:44:18.567Z,96917.41
2019-02-07T19:47:15.036Z,96920.35
2019-02-07T19:50:11.582Z,96918.72
2019-02-07T19:53:09.659Z,96918.80
2019-02-07T19:56:05.081Z,96915.54
2019-02-07T19:59:01.351Z,96919.73
2019-02-07T20:01:58.226Z,96915.67
2019-02-07T20:04:54.135Z,96919.11
2019-02-07T20:07:51.807Z,96920.80
2019-02-07T20:10:47.377Z,96929.84
2019-02-07T20:13:44.260Z,96928.14
2019-02-07T20:16:40.581Z,96928.94
2019-02-07T20:19:36.456Z,96936.87
2019-02-07T20:22:33.077Z,96934.52
2019-02-07T20:25:28.737Z,96931.71
2019-02-07T20:28:25.577Z,96931.71
2019-02-07T20:31:21.138Z,96939.99
2019-02-07T20:34:17.679Z,96940.75
2019-02-07T20:37:13.361Z,96936.56
2019-02-07T20:40:10.189Z,96938.98
2019-02-07T20:43:05.787Z,96941.86
2019-02-07T20:46:02.616Z,96948.79
2019-02-07T20:48:59.310Z,96953.09
2019-02-07T20:51:55.109Z,96948.09
2019-02-07T20:54:53.651Z,96953.09
2019-02-07T20:57:51.211Z,96956.83
2019-02-07T21:00:50.416Z,96963.86
2019-02-07T21:03:46.036Z,96971.41
2019-02-07T21:06:42.214Z,96965.56
2019-02-07T21:09:39.104Z,96969.75
2019-02-07T21:12:35.925Z,96968.98
2019-02-07T21:15:33.796Z,96969.75
2019-02-07T21:18:30.182Z,96976.47
2019-02-07T21:21:26.994Z,96981.29
2019-02-07T21:24:22.662Z,96980.98
2019-02-07T21:27:20.168Z,96983.16
2019-02-07T21:30:16.647Z,96986.91
2019-02-07T21:33:11.654Z,96986.11
2019-02-07T21:36:08.420Z,96989.68
2019-02-07T21:39:04.036Z,96994.84
2019-02-07T21:42:01.662Z,96997.48
2019-02-07T21:44:57.427Z,97005.10
2019-02-07T21:47:53.609Z,97000.11
2019-02-07T21:50:49.111Z,97009.47
2019-02-07T21:53:45.665Z,97007.28
2019-02-07T21:56:43.245Z,97009.16
2019-02-07T21:59:39.903Z,97014.14
2019-02-07T22:02:36.649Z,97019.94
2019-02-07T22:05:32.409Z,97033.20
2019-02-07T22:08:29.921Z,97028.03
2019-02-07T22:11:26.503Z,97038.09
2019-02-07T22:14:24.130Z,97042.24
2019-02-07T22:17:20.796Z,97040.69
2019-02-07T22:20:16.360Z,97046.44
2019-02-07T22:23:12.527Z,97056.34
2019-02-07T22:26:08.025Z,97062.97
2019-02-07T22:29:05.873Z,97068.75
2019-02-07T22:32:01.529Z,97074.43
2019-02-07T22:34:57.922Z,97075.22
2019-02-07T22:37:53.242Z,97075.16
2019-02-07T22:40:49.752Z,97075.16
2019-02-07T22:43:46.010Z,97082.64
2019-02-07T22:46:47.074Z,97088.87
2019-02-07T22:49:44.290Z,97084.82
2019-02-07T22:52:39.778Z,97084.97
2019-02-07T22:55:36.538Z,97088.09
2019-02-07T22:58:34.100Z,97085.74
2019-02-07T23:02:02.506Z,97082.45
2019-02-07T23:04:59.111Z,97089.17
2019-02-07T23:07:54.490Z,97090.42
2019-02-07T23:10:52.000Z,97099.30
2019-02-07T23:13:47.362Z,97103.19
2019-02-07T23:16:43.395Z,97111.30
2019-02-07T23:19:39.922Z,97110.69
2019-02-07T23:22:37.169Z,97113.81
2019-02-07T23:25:32.892Z,97117.70
2019-02-07T23:28:29.562Z,97110.35
2019-02-07T23:31:26.121Z,97107.55
2019-02-07T23:34:26.426Z,97123.91
2019-02-07T23:37:27.010Z,97125.79
2019-02-07T23:40:22.389Z,97135.02
2019-02-07T23:43:19.854Z,97134.22
2019-02-07T23:46:15.410Z,97135.02
2019-02-07T23:49:12.956Z,97136.19
2019-02-07T23:52:08.392Z,97140.01
2019-02-07T23:55:05.082Z,97147.19
2019-02-07T23:58:01.604Z,97146.70
